createdAt,value
2019-03-15T00:00:27.758Z,4.10
2019-03-15T00:02:57.500Z,4.10
2019-03-15T00:05:27.202Z,4.10
2019-03-15T00:07:57.378Z,4.10
2019-03-15T00:10:27.106Z,4.20
2019-03-15T00:12:56.813Z,4.10
2019-03-15T00:15:26.539Z,4.00
2019-03-15T00:17:56.260Z,4.00
2019-03-15T00:20:26.590Z,4.00
2019-03-15T00:22:56.336Z,3.90
2019-03-15T00:25:26.054Z,3.90
2019-03-15T00:27:55.744Z,4.00
2019-03-15T00:30:26.475Z,3.90
2019-03-15T00:32:56.245Z,3.90
2019-03-15T00:35:25.933Z,3.90
2019-03-15T00:37:56.585Z,3.90
2019-03-15T00:40:26.422Z,3.90
2019-03-15T00:42:56.177Z,3.90
2019-03-15T00:45:25.870Z,3.90
2019-03-15T00:47:55.611Z,3.90
2019-03-15T00:50:25.300Z,3.80
2019-03-15T00:52:55.016Z,3.80
2019-03-15T00:55:26.054Z,3.80
2019-03-15T00:57:55.872Z,3.80
2019-03-15T01:00:26.099Z,3.80
2019-03-15T01:02:55.788Z,3.80
2019-03-15T01:05:25.510Z,3.80
2019-03-15T01:07:55.224Z,4.00
2019-03-15T01:10:24.891Z,4.10
2019-03-15T01:12:54.593Z,4.10
2019-03-15T01:15:24.316Z,4.20
2019-03-15T01:17:54.044Z,4.20
2019-03-15T01:20:23.711Z,4.30
2019-03-15T01:22:53.434Z,4.30
2019-03-15T01:25:24.157Z,4.30
2019-03-15T01:27:53.859Z,4.30
2019-03-15T01:30:23.584Z,4.30
2019-03-15T01:32:53.278Z,4.40
2019-03-15T01:35:23.039Z,4.50
2019-03-15T01:37:52.754Z,4.40
2019-03-15T01:40:22.453Z,4.40
2019-03-15T01:42:52.236Z,4.40
2019-03-15T01:45:21.915Z,4.40
2019-03-15T01:47:51.629Z,4.50
2019-03-15T01:50:21.372Z,4.50
2019-03-15T01:52:51.075Z,4.60
2019-03-15T01:55:20.755Z,4.50
2019-03-15T01:57:50.465Z,4.60
2019-03-15T02:00:20.155Z,4.60
2019-03-15T02:02:49.920Z,4.70
2019-03-15T02:05:19.617Z,4.70
2019-03-15T02:07:49.288Z,4.70
2019-03-15T02:10:21.853Z,4.70
2019-03-15T02:12:50.349Z,4.70
2019-03-15T02:15:20.017Z,4.60
2019-03-15T02:17:49.736Z,4.60
2019-03-15T02:20:19.431Z,4.60
2019-03-15T02:22:49.129Z,4.60
2019-03-15T02:25:28.767Z,4.60
2019-03-15T02:27:58.529Z,4.60
2019-03-15T02:30:28.198Z,4.60
2019-03-15T02:32:58.347Z,4.60
2019-03-15T02:35:28.034Z,4.60
2019-03-15T02:37:57.748Z,4.70
2019-03-15T02:40:27.650Z,4.70
2019-03-15T02:42:57.365Z,4.70
2019-03-15T02:45:27.012Z,4.60
2019-03-15T02:47:56.787Z,4.60
2019-03-15T02:50:26.459Z,4.60
2019-03-15T02:52:56.150Z,4.70
2019-03-15T02:55:25.847Z,4.60
2019-03-15T02:57:55.736Z,4.60
2019-03-15T03:00:25.595Z,4.50
2019-03-15T03:02:55.268Z,4.50
2019-03-15T03:05:24.994Z,4.50
2019-03-15T03:07:54.656Z,4.40
2019-03-15T03:10:24.389Z,4.50
2019-03-15T03:12:54.059Z,4.50
2019-03-15T03:15:25.100Z,4.50
2019-03-15T03:17:55.014Z,4.50
2019-03-15T03:20:24.743Z,4.50
2019-03-15T03:22:54.388Z,4.50
2019-03-15T03:25:24.117Z,4.50
2019-03-15T03:27:54.738Z,4.40
2019-03-15T03:30:24.413Z,4.40
2019-03-15T03:32:54.108Z,4.40
2019-03-15T03:35:23.815Z,4.40
2019-03-15T03:37:53.516Z,4.50
2019-03-15T03:40:23.705Z,4.50
2019-03-15T03:42:53.395Z,4.50
2019-03-15T03:45:23.504Z,4.50
2019-03-15T03:47:53.475Z,4.50
2019-03-15T03:50:23.168Z,4.50
2019-03-15T03:52:52.894Z,4.50
2019-03-15T03:55:22.585Z,4.50
2019-03-15T03:57:52.334Z,4.50
2019-03-15T04:00:22.058Z,4.50
2019-03-15T04:02:53.293Z,4.50
2019-03-15T04:05:23.609Z,4.50
2019-03-15T04:07:53.351Z,4.50
2019-03-15T04:10:23.119Z,4.50
2019-03-15T04:12:52.809Z,4.50
2019-03-15T04:15:22.522Z,4.50
2019-03-15T04:17:52.202Z,4.40
2019-03-15T04:20:21.892Z,4.50
2019-03-15T04:22:51.623Z,4.50
2019-03-15T04:25:21.404Z,4.50
2019-03-15T04:27:51.066Z,4.50
2019-03-15T04:30:20.763Z,4.50
2019-03-15T04:32:50.637Z,4.50
2019-03-15T04:35:20.299Z,4.50
2019-03-15T04:37:49.974Z,4.60
2019-03-15T04:40:19.699Z,4.50
2019-03-15T04:42:49.410Z,4.50
2019-03-15T04:45:19.115Z,4.60
2019-03-15T04:47:48.798Z,4.60
2019-03-15T04:50:18.483Z,4.60
2019-03-15T04:52:48.192Z,4.60
2019-03-15T04:55:17.895Z,4.60
2019-03-15T04:57:47.558Z,4.60
2019-03-15T05:00:17.265Z,4.60
2019-03-15T05:02:47.434Z,4.60
2019-03-15T05:05:17.181Z,4.70
2019-03-15T05:07:46.854Z,4.70
2019-03-15T05:10:16.569Z,4.70
2019-03-15T05:12:46.292Z,4.70
2019-03-15T05:15:15.969Z,4.70
2019-03-15T05:17:45.668Z,4.70
2019-03-15T05:20:15.337Z,4.80
2019-03-15T05:22:45.174Z,4.70
2019-03-15T05:25:14.840Z,4.80
2019-03-15T05:27:44.595Z,4.70
2019-03-15T05:30:14.263Z,4.70
2019-03-15T05:32:43.944Z,4.70
2019-03-15T05:35:14.481Z,4.80
2019-03-15T05:37:44.131Z,4.80
2019-03-15T05:40:15.511Z,4.80
2019-03-15T05:42:45.282Z,4.80
2019-03-15T05:45:15.013Z,4.80
2019-03-15T05:47:44.764Z,4.80
2019-03-15T05:50:14.631Z,4.90
2019-03-15T05:52:44.358Z,4.90
2019-03-15T05:55:14.124Z,4.90
2019-03-15T05:57:44.955Z,4.90
2019-03-15T06:00:14.853Z,4.90
2019-03-15T06:02:44.611Z,5.00
2019-03-15T06:05:14.316Z,5.00
2019-03-15T06:07:43.979Z,5.00
2019-03-15T06:10:13.700Z,5.10
2019-03-15T06:12:43.368Z,5.10
2019-03-15T06:15:13.121Z,5.10
2019-03-15T06:17:42.861Z,5.10
2019-03-15T06:20:15.501Z,5.10
2019-03-15T06:22:45.195Z,5.20
2019-03-15T06:25:15.844Z,5.20
2019-03-15T06:27:45.595Z,5.20
2019-03-15T06:30:15.415Z,5.30
2019-03-15T06:32:45.092Z,5.30
2019-03-15T06:35:14.855Z,5.30
2019-03-15T06:37:46.032Z,5.40
2019-03-15T06:40:15.702Z,5.40
2019-03-15T06:42:45.412Z,5.50
2019-03-15T06:45:15.299Z,5.60
2019-03-15T06:47:44.992Z,5.60
2019-03-15T06:50:17.486Z,5.60
2019-03-15T06:52:47.195Z,5.60
2019-03-15T06:55:16.893Z,5.70
2019-03-15T06:57:46.576Z,5.70
2019-03-15T07:00:16.753Z,5.70
2019-03-15T07:02:46.445Z,5.70
2019-03-15T07:05:16.144Z,5.80
2019-03-15T07:07:45.901Z,5.70
2019-03-15T07:10:15.719Z,5.80
2019-03-15T07:12:45.526Z,5.80
2019-03-15T07:15:15.320Z,5.80
2019-03-15T07:17:45.002Z,5.80
2019-03-15T07:20:15.080Z,5.80
2019-03-15T07:22:56.933Z,5.90
2019-03-15T07:25:26.664Z,6.00
2019-03-15T07:27:56.406Z,6.10
2019-03-15T07:30:26.096Z,6.20
2019-03-15T07:32:56.486Z,6.20
2019-03-15T07:35:26.671Z,6.20
2019-03-15T07:37:56.358Z,6.30
2019-03-15T07:40:26.099Z,6.40
2019-03-15T07:42:55.777Z,6.40
2019-03-15T07:45:27.499Z,6.50
2019-03-15T07:47:57.256Z,6.50
2019-03-15T07:50:26.954Z,6.60
2019-03-15T07:52:56.635Z,6.60
2019-03-15T07:55:26.338Z,6.60
2019-03-15T07:57:56.057Z,6.60
2019-03-15T08:00:25.834Z,6.60
2019-03-15T08:02:55.555Z,6.70
2019-03-15T08:05:25.637Z,6.80
2019-03-15T08:07:55.399Z,6.90
2019-03-15T08:10:25.087Z,7.00
2019-03-15T08:12:55.330Z,7.10
2019-03-15T08:15:25.604Z,7.20
2019-03-15T08:17:55.283Z,7.30
2019-03-15T08:20:25.292Z,7.40
2019-03-15T08:22:55.489Z,7.60
2019-03-15T08:25:25.214Z,7.70
2019-03-15T08:27:54.921Z,7.80
2019-03-15T08:30:24.618Z,7.80
2019-03-15T08:32:54.341Z,7.70
2019-03-15T08:35:24.742Z,7.60
2019-03-15T08:37:54.974Z,7.60
2019-03-15T08:40:26.017Z,7.50
2019-03-15T08:42:55.974Z,7.60
2019-03-15T08:45:25.699Z,7.50
2019-03-15T08:47:55.409Z,7.50
2019-03-15T08:50:25.103Z,7.40
2019-03-15T08:52:54.799Z,7.40
2019-03-15T08:55:24.515Z,7.40
2019-03-15T08:57:54.278Z,7.40
2019-03-15T09:00:23.985Z,7.50
2019-03-15T09:02:53.660Z,7.50
2019-03-15T09:05:23.406Z,7.60
2019-03-15T09:07:53.104Z,7.90
2019-03-15T09:10:24.077Z,8.10
2019-03-15T09:12:54.177Z,8.30
2019-03-15T09:15:23.889Z,8.50
2019-03-15T09:17:53.656Z,8.70
2019-03-15T09:20:29.565Z,8.80
2019-03-15T09:22:55.278Z,8.90
2019-03-15T09:25:24.964Z,9.00
2019-03-15T09:27:54.671Z,9.00
2019-03-15T09:30:24.751Z,8.90
2019-03-15T09:32:54.618Z,8.60
2019-03-15T09:35:24.323Z,8.40
2019-03-15T09:37:54.064Z,8.30
2019-03-15T09:40:25.739Z,8.20
2019-03-15T09:42:55.110Z,8.10
2019-03-15T09:45:24.858Z,7.90
2019-03-15T09:47:54.540Z,7.80
2019-03-15T09:50:35.991Z,7.70
2019-03-15T09:52:55.604Z,7.70
2019-03-15T09:55:32.948Z,8.00
2019-03-15T09:57:57.101Z,8.40
2019-03-15T10:00:26.796Z,8.80
2019-03-15T10:02:56.491Z,9.00
2019-03-15T10:05:26.233Z,9.10
2019-03-15T10:07:55.927Z,9.10
2019-03-15T10:10:25.652Z,9.10
2019-03-15T10:13:05.005Z,9.00
2019-03-15T10:15:26.864Z,9.00
2019-03-15T10:17:56.965Z,8.90
2019-03-15T10:20:26.662Z,8.70
2019-03-15T10:23:05.275Z,8.60
2019-03-15T10:25:28.038Z,8.50
2019-03-15T10:27:57.815Z,8.30
2019-03-15T10:30:27.486Z,8.30
2019-03-15T10:32:57.140Z,8.30
2019-03-15T10:35:26.822Z,8.20
2019-03-15T10:37:56.528Z,8.30
2019-03-15T10:40:26.243Z,8.50
2019-03-15T10:42:56.005Z,8.70
2019-03-15T10:45:25.651Z,8.90
2019-03-15T10:47:55.348Z,9.00
2019-03-15T10:50:25.024Z,9.00
2019-03-15T10:52:54.701Z,8.90
2019-03-15T10:55:24.409Z,8.70
2019-03-15T10:57:54.127Z,8.80
2019-03-15T11:00:23.901Z,9.10
2019-03-15T11:02:53.562Z,9.30
2019-03-15T11:05:24.482Z,9.50
2019-03-15T11:07:54.159Z,9.70
2019-03-15T11:10:25.424Z,10.20
2019-03-15T11:12:55.140Z,10.70
2019-03-15T11:15:24.931Z,11.10
2019-03-15T11:17:54.623Z,11.40
2019-03-15T11:20:24.444Z,11.50
2019-03-15T11:22:54.159Z,11.70
2019-03-15T11:25:24.085Z,11.60
2019-03-15T11:27:53.760Z,11.30
2019-03-15T11:30:26.020Z,10.90
2019-03-15T11:32:55.727Z,10.70
2019-03-15T11:35:25.652Z,10.50
2019-03-15T11:37:55.327Z,10.30
2019-03-15T11:40:25.038Z,10.20
2019-03-15T11:42:54.756Z,10.20
2019-03-15T11:45:24.606Z,10.10
2019-03-15T11:48:03.307Z,10.00
2019-03-15T11:50:25.740Z,9.90
2019-03-15T11:52:55.455Z,9.90
2019-03-15T11:55:25.728Z,10.10
2019-03-15T11:57:55.526Z,10.40
2019-03-15T12:00:25.366Z,10.50
2019-03-15T12:02:55.126Z,10.40
2019-03-15T12:05:24.812Z,10.20
2019-03-15T12:07:54.539Z,10.20
2019-03-15T12:10:24.203Z,10.30
2019-03-15T12:12:54.931Z,10.00
2019-03-15T12:15:24.595Z,9.80
2019-03-15T12:17:54.257Z,9.60
2019-03-15T12:20:23.953Z,9.50
2019-03-15T12:22:53.638Z,9.50
2019-03-15T12:25:23.361Z,9.50
2019-03-15T12:27:53.046Z,9.60
2019-03-15T12:30:22.716Z,9.70
2019-03-15T12:32:52.456Z,9.70
2019-03-15T12:35:22.137Z,9.70
2019-03-15T12:37:51.838Z,9.80
2019-03-15T12:40:21.551Z,9.90
2019-03-15T12:42:51.288Z,10.10
2019-03-15T12:45:21.003Z,10.40
2019-03-15T12:47:50.686Z,10.60
2019-03-15T12:50:22.124Z,10.80
2019-03-15T12:52:51.858Z,10.80
2019-03-15T12:55:21.595Z,10.90
2019-03-15T12:57:51.288Z,10.90
2019-03-15T13:00:21.165Z,10.70
2019-03-15T13:02:51.086Z,10.50
2019-03-15T13:05:20.851Z,10.40
2019-03-15T13:07:51.028Z,10.20
2019-03-15T13:10:20.953Z,9.90
2019-03-15T13:12:50.771Z,9.70
2019-03-15T13:15:20.438Z,9.60
2019-03-15T13:17:51.352Z,9.60
2019-03-15T13:20:21.057Z,9.60
2019-03-15T13:22:50.803Z,9.70
2019-03-15T13:25:40.720Z,9.70
2019-03-15T13:28:10.447Z,9.90
2019-03-15T13:30:40.209Z,10.10
2019-03-15T13:33:19.630Z,10.20
2019-03-15T13:35:41.320Z,10.40
2019-03-15T13:38:11.079Z,10.60
2019-03-15T13:40:40.803Z,10.80
2019-03-15T13:43:10.509Z,11.10
2019-03-15T13:45:40.281Z,11.30
2019-03-15T13:48:10.038Z,11.60
2019-03-15T13:50:39.776Z,11.80
2019-03-15T13:53:09.464Z,11.80
2019-03-15T13:55:39.245Z,11.40
2019-03-15T13:58:09.401Z,10.90
2019-03-15T14:00:39.131Z,10.40
2019-03-15T14:03:08.844Z,10.00
2019-03-15T14:05:38.784Z,9.60
2019-03-15T14:08:11.979Z,9.40
2019-03-15T14:10:49.202Z,9.10
2019-03-15T14:13:12.144Z,8.90
2019-03-15T14:15:41.967Z,8.50
2019-03-15T14:18:11.865Z,8.10
2019-03-15T14:20:41.568Z,7.80
2019-03-15T14:23:11.327Z,7.70
2019-03-15T14:25:41.178Z,7.60
2019-03-15T14:28:10.866Z,7.60
2019-03-15T14:30:40.700Z,7.60
2019-03-15T14:33:10.467Z,7.70
2019-03-15T14:35:41.398Z,7.70
2019-03-15T14:38:11.290Z,7.80
2019-03-15T14:40:42.142Z,7.80
2019-03-15T14:43:13.168Z,7.80
2019-03-15T14:45:43.116Z,7.90
2019-03-15T14:48:12.743Z,7.80
2019-03-15T14:50:42.486Z,7.80
2019-03-15T14:53:12.181Z,7.80
2019-03-15T14:55:42.366Z,7.90
2019-03-15T14:58:14.311Z,7.90
2019-03-15T15:00:44.048Z,8.00
2019-03-15T15:03:14.134Z,8.00
2019-03-15T15:05:47.085Z,8.00
2019-03-15T15:08:16.384Z,7.90
2019-03-15T15:10:46.125Z,7.80
2019-03-15T15:13:15.877Z,7.70
2019-03-15T15:15:45.637Z,7.70
2019-03-15T15:18:15.376Z,7.70
2019-03-15T15:20:45.086Z,7.70
2019-03-15T15:23:14.790Z,7.60
2019-03-15T15:25:44.649Z,7.60
2019-03-15T15:28:14.463Z,7.50
2019-03-15T15:30:44.649Z,7.50
2019-03-15T15:33:14.347Z,7.40
2019-03-15T15:35:44.018Z,7.30
2019-03-15T15:38:13.753Z,7.20
2019-03-15T15:40:43.421Z,7.20
2019-03-15T15:43:13.171Z,7.10
2019-03-15T15:45:42.872Z,7.20
2019-03-15T15:48:12.547Z,7.10
2019-03-15T15:50:42.262Z,7.10
2019-03-15T15:53:11.967Z,7.00
2019-03-15T15:55:41.732Z,7.00
2019-03-15T15:58:17.981Z,7.00
2019-03-15T16:00:42.821Z,7.00
2019-03-15T16:03:12.515Z,6.90
2019-03-15T16:05:42.232Z,6.90
2019-03-15T16:08:11.999Z,6.90
2019-03-15T16:10:41.716Z,6.80
2019-03-15T16:13:17.380Z,6.80
2019-03-15T16:15:43.154Z,6.70
2019-03-15T16:18:12.838Z,6.70
2019-03-15T16:20:42.599Z,6.70
2019-03-15T16:23:12.271Z,6.70
2019-03-15T16:25:42.578Z,6.60
2019-03-15T16:28:12.279Z,6.60
2019-03-15T16:30:41.968Z,6.70
2019-03-15T16:33:11.735Z,6.60
2019-03-15T16:35:41.449Z,6.60
2019-03-15T16:38:11.172Z,6.60
2019-03-15T16:40:40.932Z,6.60
2019-03-15T16:43:10.612Z,6.60
2019-03-15T16:45:40.286Z,6.50
2019-03-15T16:48:09.992Z,6.40
2019-03-15T16:50:39.653Z,6.30
2019-03-15T16:53:09.379Z,6.20
2019-03-15T16:55:53.836Z,6.20
2019-03-15T16:58:23.575Z,6.00
2019-03-15T17:00:53.683Z,6.00
2019-03-15T17:03:23.802Z,6.00
2019-03-15T17:05:53.610Z,5.90
2019-03-15T17:08:23.268Z,5.90
2019-03-15T17:10:52.979Z,5.80
2019-03-15T17:13:22.655Z,5.70
2019-03-15T17:15:52.352Z,5.60
2019-03-15T17:18:22.041Z,5.60
2019-03-15T17:20:52.204Z,5.50
2019-03-15T17:23:21.938Z,5.40
2019-03-15T17:25:51.628Z,5.40
2019-03-15T17:28:21.341Z,5.30
2019-03-15T17:30:51.003Z,5.30
2019-03-15T17:33:20.703Z,5.20
2019-03-15T17:35:50.383Z,5.20
2019-03-15T17:38:20.098Z,5.20
2019-03-15T17:40:50.234Z,5.20
2019-03-15T17:43:19.892Z,5.10
2019-03-15T17:45:49.623Z,5.10
2019-03-15T17:48:19.337Z,5.10
2019-03-15T17:50:49.012Z,5.20
2019-03-15T17:53:18.713Z,5.20
2019-03-15T17:55:48.681Z,5.20
2019-03-15T17:58:18.408Z,5.30
2019-03-15T18:00:48.306Z,5.40
2019-03-15T18:03:21.244Z,5.50
2019-03-15T18:05:49.459Z,5.60
2019-03-15T18:08:19.463Z,5.70
2019-03-15T18:10:49.160Z,5.80
2019-03-15T18:13:19.297Z,5.90
2019-03-15T18:15:48.960Z,6.00
2019-03-15T18:18:18.655Z,5.90
2019-03-15T18:20:48.364Z,5.90
2019-03-15T18:23:18.024Z,5.90
2019-03-15T18:25:47.773Z,5.80
2019-03-15T18:28:17.457Z,5.80
2019-03-15T18:30:47.192Z,5.80
2019-03-15T18:33:16.872Z,5.80
2019-03-15T18:35:46.854Z,5.70
2019-03-15T18:38:16.660Z,5.70
2019-03-15T18:40:46.371Z,5.60
2019-03-15T18:43:16.057Z,5.60
2019-03-15T18:45:45.787Z,5.60
2019-03-15T18:48:18.593Z,5.50
2019-03-15T18:50:48.302Z,5.50
2019-03-15T18:53:19.753Z,5.50
2019-03-15T18:55:49.511Z,5.50
2019-03-15T18:58:19.233Z,5.60
2019-03-15T19:00:49.369Z,5.80
2019-03-15T19:03:19.139Z,5.80
2019-03-15T19:05:48.837Z,6.00
2019-03-15T19:08:18.527Z,6.00
2019-03-15T19:10:48.214Z,6.00
2019-03-15T19:13:17.927Z,6.00
2019-03-15T19:15:47.641Z,6.10
2019-03-15T19:18:17.305Z,6.00
2019-03-15T19:20:47.106Z,6.00
2019-03-15T19:23:17.240Z,6.00
2019-03-15T19:25:47.040Z,6.10
2019-03-15T19:28:26.810Z,6.10
2019-03-15T19:31:02.560Z,6.20
2019-03-15T19:33:33.408Z,6.20
2019-03-15T19:36:03.064Z,6.10
2019-03-15T19:38:33.417Z,6.20
2019-03-15T19:41:03.140Z,6.20
2019-03-15T19:43:32.828Z,6.30
2019-03-15T19:46:02.557Z,6.30
2019-03-15T19:48:32.310Z,6.20
2019-03-15T19:51:02.042Z,6.20
2019-03-15T19:53:31.694Z,6.30
2019-03-15T19:56:01.461Z,6.30
2019-03-15T19:58:31.170Z,6.20
2019-03-15T20:01:00.862Z,6.20
2019-03-15T20:03:43.279Z,6.20
2019-03-15T20:06:02.044Z,6.20
2019-03-15T20:08:31.729Z,6.20
2019-03-15T20:11:01.446Z,6.20
2019-03-15T20:13:31.165Z,6.20
2019-03-15T20:16:00.881Z,6.20
2019-03-15T20:18:30.557Z,6.10
2019-03-15T20:21:01.360Z,6.20
2019-03-15T20:23:31.083Z,6.10
2019-03-15T20:26:00.787Z,6.10
2019-03-15T20:28:30.507Z,6.10
2019-03-15T20:31:00.269Z,6.10
2019-03-15T20:33:29.955Z,6.10
2019-03-15T20:36:04.319Z,6.10
2019-03-15T20:38:34.013Z,6.10
2019-03-15T20:41:03.723Z,6.10
2019-03-15T20:43:33.774Z,6.10
2019-03-15T20:46:03.545Z,6.10
2019-03-15T20:48:33.544Z,6.10
2019-03-15T20:51:03.211Z,6.10
2019-03-15T20:53:32.909Z,6.00
2019-03-15T20:56:02.686Z,6.00
2019-03-15T20:58:32.403Z,6.00
2019-03-15T21:01:02.092Z,6.00
2019-03-15T21:03:31.799Z,6.00
2019-03-15T21:06:01.535Z,6.10
2019-03-15T21:08:31.695Z,6.00
2019-03-15T21:11:02.542Z,6.00
2019-03-15T21:13:33.823Z,6.00
2019-03-15T21:16:03.634Z,6.00
2019-03-15T21:18:33.383Z,6.00
2019-03-15T21:21:03.112Z,6.00
2019-03-15T21:23:35.670Z,6.00
2019-03-15T21:26:05.486Z,6.00
2019-03-15T21:28:35.384Z,6.00
2019-03-15T21:31:05.152Z,6.10
2019-03-15T21:33:34.830Z,6.00
2019-03-15T21:36:04.668Z,6.00
2019-03-15T21:38:47.340Z,6.00
2019-03-15T21:41:05.691Z,6.00
2019-03-15T21:43:37.935Z,6.10
2019-03-15T21:46:07.699Z,6.10
2019-03-15T21:48:40.434Z,6.10
2019-03-15T21:51:11.384Z,6.10
2019-03-15T21:53:41.076Z,6.10
2019-03-15T21:56:10.795Z,6.20
2019-03-15T21:58:40.920Z,6.20
2019-03-15T22:01:10.706Z,6.20
2019-03-15T22:04:13.960Z,6.20
2019-03-15T22:06:43.406Z,6.20
2019-03-15T22:09:13.154Z,6.20
2019-03-15T22:11:42.884Z,6.20
2019-03-15T22:14:12.663Z,6.20
2019-03-15T22:16:42.804Z,6.20
2019-03-15T22:19:14.388Z,6.20
2019-03-15T22:21:44.117Z,6.20
2019-03-15T22:24:13.833Z,6.20
2019-03-15T22:26:43.551Z,6.20
2019-03-15T22:29:14.401Z,6.20
2019-03-15T22:31:44.605Z,6.20
2019-03-15T22:34:14.769Z,6.20
2019-03-15T22:36:44.441Z,6.20
2019-03-15T22:39:14.619Z,6.20
2019-03-15T22:41:44.307Z,6.20
2019-03-15T22:44:14.020Z,6.20
2019-03-15T22:46:44.122Z,6.20
2019-03-15T22:49:13.872Z,6.20
2019-03-15T22:51:46.892Z,6.20
2019-03-15T22:54:16.671Z,6.20
2019-03-15T22:56:46.381Z,6.20
2019-03-15T22:59:16.647Z,6.20
2019-03-15T23:01:46.398Z,6.20
2019-03-15T23:04:16.107Z,6.20
2019-03-15T23:06:45.824Z,6.20
2019-03-15T23:09:15.607Z,6.30
2019-03-15T23:11:47.636Z,6.20
2019-03-15T23:14:17.382Z,6.20
2019-03-15T23:16:47.133Z,6.20
2019-03-15T23:19:16.908Z,6.20
2019-03-15T23:21:46.572Z,6.10
2019-03-15T23:24:16.306Z,6.00
2019-03-15T23:26:46.033Z,6.00
2019-03-15T23:29:36.612Z,5.90
2019-03-15T23:32:06.321Z,5.80
2019-03-15T23:34:36.357Z,5.70
2019-03-15T23:37:06.087Z,5.70
2019-03-15T23:39:35.789Z,5.70
2019-03-15T23:42:05.471Z,5.60
2019-03-15T23:44:35.165Z,5.60
2019-03-15T23:47:04.841Z,5.60
2019-03-15T23:49:34.532Z,5.60
2019-03-15T23:52:04.227Z,5.50
2019-03-15T23:54:33.900Z,5.50
2019-03-15T23:57:03.557Z,5.40
2019-03-15T23:59:33.256Z,5.30
